Aby, United Kingdom
Current Conditions -  °F | °C
As of 2:50 PM on Sunday 21 Dec 2014 (Local Time) from EGXS Reporting Station
Broken Clouds Broken Clouds  
Wind Chill: 50°   Ceiling: 19000
Heat Index: 50°   Visibility: 6mi
Dew Point: 43°   Wind: 26mph
Humidity: 76%   Direction: 220°SW
Pressure: 30"   Gusts: NA
Location:  53.26°N, 0.17°E
Report Text: EGXS 211450Z AUTO 22023KT 9999 // FEW070/// BKN190/// 10/06 Q1016
Loading
Personal Weather Stations






























Interactive Weather Map New forecast layout! Learn more

10-Day Weather Forecast

Advertisements
Track Severe Weather on mobile